createdAt,value
2016-07-11T00:00:20.340Z,950.07
2016-07-11T00:01:20.340Z,950.06
2016-07-11T00:02:20.241Z,950.04
2016-07-11T00:03:20.371Z,950.1
2016-07-11T00:04:20.266Z,950.04
2016-07-11T00:05:20.469Z,950.05
2016-07-11T00:06:20.483Z,950.04
2016-07-11T00:07:20.303Z,950.06
2016-07-11T00:08:20.295Z,950.07
2016-07-11T00:09:20.445Z,950.06
2016-07-11T00:10:20.326Z,950.03
2016-07-11T00:11:20.325Z,950.01
2016-07-11T00:12:20.347Z,950.06
2016-07-11T00:13:20.349Z,950.03
2016-07-11T00:14:20.539Z,950.06
2016-07-11T00:15:20.366Z,950.08
2016-07-11T00:16:20.381Z,949.97
2016-07-11T00:17:20.378Z,949.97
2016-07-11T00:18:20.571Z,949.95
2016-07-11T00:19:20.380Z,949.95
2016-07-11T00:20:20.390Z,949.94
2016-07-11T00:21:20.419Z,949.95
2016-07-11T00:22:20.415Z,949.92
2016-07-11T00:23:20.414Z,949.98
2016-07-11T00:24:20.442Z,949.97
2016-07-11T00:25:20.444Z,949.96
2016-07-11T00:26:20.443Z,950.02
2016-07-11T00:27:20.565Z,949.94
2016-07-11T00:28:20.470Z,949.96
2016-07-11T00:29:20.466Z,949.91
2016-07-11T00:30:20.487Z,949.9
2016-07-11T00:31:20.496Z,949.89
2016-07-11T00:32:20.519Z,949.84
2016-07-11T00:33:20.530Z,949.84
2016-07-11T00:34:20.745Z,949.78
2016-07-11T00:35:20.516Z,949.76
2016-07-11T00:36:20.557Z,949.81
2016-07-11T00:37:20.556Z,949.77
2016-07-11T00:38:20.554Z,949.76
2016-07-11T00:39:20.584Z,949.77
2016-07-11T00:40:20.573Z,949.79
2016-07-11T00:41:20.770Z,949.77
2016-07-11T00:42:20.580Z,949.77
2016-07-11T00:43:20.581Z,949.77
2016-07-11T00:44:20.584Z,949.77
2016-07-11T00:45:20.588Z,949.76
2016-07-11T00:46:20.596Z,949.72
2016-07-11T00:47:20.724Z,949.72
2016-07-11T00:48:20.602Z,949.75
2016-07-11T00:49:20.599Z,949.74
2016-07-11T00:50:20.602Z,949.68
2016-07-11T00:51:20.629Z,949.76
2016-07-11T00:52:20.622Z,949.78
2016-07-11T00:53:20.630Z,949.72
2016-07-11T00:54:20.638Z,949.72
2016-07-11T00:55:20.635Z,949.76
2016-07-11T00:56:20.742Z,949.73
2016-07-11T00:57:20.662Z,949.74
2016-07-11T00:58:20.667Z,949.74
2016-07-11T00:59:20.668Z,949.72
2016-07-11T01:00:20.878Z,949.79
2016-07-11T01:01:20.666Z,949.76
2016-07-11T01:02:20.662Z,949.75
2016-07-11T01:03:20.701Z,949.75
2016-07-11T01:04:20.703Z,949.78
2016-07-11T01:05:20.916Z,949.81
2016-07-11T01:06:20.706Z,949.78
2016-07-11T01:07:20.709Z,949.75
2016-07-11T01:08:20.890Z,949.7
2016-07-11T01:09:20.714Z,949.73
2016-07-11T01:10:20.906Z,949.76
2016-07-11T01:11:20.714Z,949.75
2016-07-11T01:12:20.726Z,949.77
2016-07-11T01:13:20.839Z,949.77
2016-07-11T01:14:20.907Z,949.73
2016-07-11T01:15:20.741Z,949.73
2016-07-11T01:16:20.929Z,949.74
2016-07-11T01:17:20.741Z,949.73
2016-07-11T01:18:20.937Z,949.69
2016-07-11T01:19:20.751Z,949.7
2016-07-11T01:20:20.744Z,949.71
2016-07-11T01:21:20.775Z,949.76
2016-07-11T01:22:20.795Z,949.72
2016-07-11T01:23:20.768Z,949.77
2016-07-11T01:24:20.803Z,949.77
2016-07-11T01:25:20.796Z,949.76
2016-07-11T01:26:20.797Z,949.8
2016-07-11T01:27:20.805Z,949.78
2016-07-11T01:28:20.808Z,949.75
2016-07-11T01:29:21.001Z,949.77
2016-07-11T01:30:20.845Z,949.78
2016-07-11T01:31:20.838Z,949.77
2016-07-11T01:32:20.822Z,949.75
2016-07-11T01:33:21.062Z,949.75
2016-07-11T01:34:20.871Z,949.72
2016-07-11T01:35:21.067Z,949.7
2016-07-11T01:36:20.894Z,949.69
2016-07-11T01:37:20.904Z,949.68
2016-07-11T01:38:20.893Z,949.67
2016-07-11T01:39:21.108Z,949.63
2016-07-11T01:40:20.921Z,949.64
2016-07-11T01:41:20.921Z,949.63
2016-07-11T01:42:21.066Z,949.67
2016-07-11T01:43:20.965Z,949.64
2016-07-11T01:44:20.965Z,949.66
2016-07-11T01:45:21.189Z,949.63
2016-07-11T01:46:21.005Z,949.63
2016-07-11T01:47:21.110Z,949.62
2016-07-11T01:48:21.052Z,949.64
2016-07-11T01:49:21.139Z,949.66
2016-07-11T01:50:21.053Z,949.62
2016-07-11T01:51:21.080Z,949.63
2016-07-11T01:52:21.261Z,949.66
2016-07-11T01:53:21.080Z,949.67
2016-07-11T01:54:21.123Z,949.66
2016-07-11T01:55:21.120Z,949.66
2016-07-11T01:56:21.121Z,949.63
2016-07-11T01:57:21.141Z,949.61
2016-07-11T01:58:21.142Z,949.62
2016-07-11T01:59:21.139Z,949.6
2016-07-11T02:00:21.168Z,949.58
2016-07-11T02:01:21.171Z,949.55
2016-07-11T02:02:21.176Z,949.58
2016-07-11T02:03:21.223Z,949.6
2016-07-11T02:04:21.211Z,949.57
2016-07-11T02:05:21.213Z,949.56
2016-07-11T02:06:21.257Z,949.53
2016-07-11T02:07:21.264Z,949.54
2016-07-11T02:08:21.259Z,949.57
2016-07-11T02:09:21.273Z,949.56
2016-07-11T02:10:21.276Z,949.52
2016-07-11T02:11:21.278Z,949.59
2016-07-11T02:12:21.275Z,949.58
2016-07-11T02:13:21.375Z,949.61
2016-07-11T02:14:21.275Z,949.55
2016-07-11T02:15:21.317Z,949.6
2016-07-11T02:16:21.320Z,949.59
2016-07-11T02:17:21.319Z,949.58
2016-07-11T02:18:21.369Z,949.51
2016-07-11T02:19:21.366Z,949.56
2016-07-11T02:20:21.362Z,949.58
2016-07-11T02:21:21.406Z,949.54
2016-07-11T02:22:21.403Z,949.56
2016-07-11T02:23:21.592Z,949.56
2016-07-11T02:24:21.536Z,949.62
2016-07-11T02:25:21.404Z,949.59
2016-07-11T02:26:21.563Z,949.58
2016-07-11T02:27:21.404Z,949.53
2016-07-11T02:28:21.412Z,949.58
2016-07-11T02:29:21.415Z,949.58
2016-07-11T02:30:21.415Z,949.58
2016-07-11T02:31:21.415Z,949.57
2016-07-11T02:32:21.401Z,949.63
2016-07-11T02:33:21.411Z,949.62
2016-07-11T02:34:21.409Z,949.59
2016-07-11T02:35:21.415Z,949.6
2016-07-11T02:36:21.420Z,949.6
2016-07-11T02:37:21.432Z,949.65
2016-07-11T02:38:21.519Z,949.64
2016-07-11T02:39:21.438Z,949.65
2016-07-11T02:40:21.441Z,949.62
2016-07-11T02:41:21.445Z,949.64
2016-07-11T02:42:21.529Z,949.62
2016-07-11T02:43:21.465Z,949.59
2016-07-11T02:44:21.468Z,949.62
2016-07-11T02:45:21.775Z,949.62
2016-07-11T02:46:21.474Z,949.61
2016-07-11T02:47:21.474Z,949.59
2016-07-11T02:48:21.513Z,949.61
2016-07-11T02:49:21.507Z,949.58
2016-07-11T02:50:21.508Z,949.64
2016-07-11T02:51:21.537Z,949.59
2016-07-11T02:52:21.537Z,949.61
2016-07-11T02:53:21.542Z,949.66
2016-07-11T02:54:21.568Z,949.61
2016-07-11T02:55:21.572Z,949.62
2016-07-11T02:56:21.788Z,949.6
2016-07-11T02:57:21.603Z,949.6
2016-07-11T02:58:21.794Z,949.56
2016-07-11T02:59:21.625Z,949.61
2016-07-11T03:00:21.650Z,949.58
2016-07-11T03:01:21.849Z,949.64
2016-07-11T03:02:21.656Z,949.58
2016-07-11T03:03:21.669Z,949.61
2016-07-11T03:04:21.869Z,949.58
2016-07-11T03:05:21.670Z,949.6
2016-07-11T03:06:21.680Z,949.59
2016-07-11T03:07:21.874Z,949.59
2016-07-11T03:08:21.681Z,949.54
2016-07-11T03:09:21.748Z,949.6
2016-07-11T03:10:21.739Z,949.56
2016-07-11T03:11:21.751Z,949.58
2016-07-11T03:12:21.772Z,949.57
2016-07-11T03:13:21.822Z,949.56
2016-07-11T03:14:21.770Z,949.52
2016-07-11T03:15:21.994Z,949.51
2016-07-11T03:16:22.013Z,949.55
2016-07-11T03:17:21.810Z,949.56
2016-07-11T03:18:21.840Z,949.52
2016-07-11T03:19:21.841Z,949.55
2016-07-11T03:20:21.843Z,949.48
2016-07-11T03:21:21.900Z,949.47
2016-07-11T03:22:22.065Z,949.48
2016-07-11T03:23:21.895Z,949.49
2016-07-11T03:24:21.944Z,949.5
2016-07-11T03:25:21.940Z,949.53
2016-07-11T03:26:21.946Z,949.53
2016-07-11T03:27:21.987Z,949.55
2016-07-11T03:28:22.005Z,949.57
2016-07-11T03:29:21.996Z,949.57
2016-07-11T03:30:22.040Z,949.61
2016-07-11T03:31:22.038Z,949.56
2016-07-11T03:32:22.036Z,949.59
2016-07-11T03:33:22.087Z,949.66
2016-07-11T03:34:22.097Z,949.64
2016-07-11T03:35:22.090Z,949.62
2016-07-11T03:36:22.378Z,949.65
2016-07-11T03:37:22.137Z,949.68
2016-07-11T03:38:22.236Z,949.72
2016-07-11T03:39:22.164Z,949.69
2016-07-11T03:40:22.154Z,949.68
2016-07-11T03:41:22.190Z,949.68
2016-07-11T03:42:22.200Z,949.65
2016-07-11T03:43:22.199Z,949.68
2016-07-11T03:44:22.198Z,949.72
2016-07-11T03:45:22.247Z,949.69
2016-07-11T03:46:22.252Z,949.75
2016-07-11T03:47:22.251Z,949.74
2016-07-11T03:48:22.294Z,949.73
2016-07-11T03:49:22.482Z,949.72
2016-07-11T03:50:22.298Z,949.74
2016-07-11T03:51:22.348Z,949.77
2016-07-11T03:52:22.349Z,949.71
2016-07-11T03:53:22.348Z,949.72
2016-07-11T03:54:22.398Z,949.71
2016-07-11T03:55:22.399Z,949.69
2016-07-11T03:56:22.394Z,949.73
2016-07-11T03:57:22.455Z,949.72
2016-07-11T03:58:22.446Z,949.71
2016-07-11T03:59:22.445Z,949.68
2016-07-11T04:00:22.460Z,949.67
2016-07-11T04:01:22.458Z,949.72
2016-07-11T04:02:22.456Z,949.76
2016-07-11T04:03:22.462Z,949.76
2016-07-11T04:04:22.564Z,949.74
2016-07-11T04:05:22.465Z,949.78
2016-07-11T04:06:22.471Z,949.75
2016-07-11T04:07:22.660Z,949.79
2016-07-11T04:08:22.470Z,949.79
2016-07-11T04:09:22.476Z,949.79
2016-07-11T04:10:22.786Z,949.76
2016-07-11T04:11:22.475Z,949.78
2016-07-11T04:12:22.658Z,949.76
2016-07-11T04:13:22.474Z,949.88
2016-07-11T04:14:22.477Z,949.88
2016-07-11T04:15:22.490Z,949.75
2016-07-11T04:16:22.480Z,949.71
2016-07-11T04:17:22.670Z,949.71
2016-07-11T04:18:22.496Z,949.68
2016-07-11T04:19:22.494Z,949.66
2016-07-11T04:20:22.496Z,949.65
2016-07-11T04:21:22.512Z,949.67
2016-07-11T04:22:22.702Z,949.66
2016-07-11T04:23:22.518Z,949.63
2016-07-11T04:24:22.546Z,949.61
2016-07-11T04:25:22.545Z,949.6
2016-07-11T04:26:22.566Z,949.62
2016-07-11T04:27:22.574Z,949.61
2016-07-11T04:28:22.574Z,949.62
2016-07-11T04:29:22.566Z,949.58
2016-07-11T04:30:22.760Z,949.58
2016-07-11T04:31:22.576Z,949.52
2016-07-11T04:32:22.567Z,949.58
2016-07-11T04:33:22.628Z,949.59
2016-07-11T04:34:22.629Z,949.57
2016-07-11T04:35:22.613Z,949.55
2016-07-11T04:36:22.628Z,949.63
2016-07-11T04:37:22.632Z,949.63
2016-07-11T04:38:22.627Z,949.61
2016-07-11T04:39:22.676Z,949.56
2016-07-11T04:40:22.684Z,949.57
2016-07-11T04:41:22.687Z,949.61
2016-07-11T04:42:22.693Z,949.6
2016-07-11T04:43:22.696Z,949.62
2016-07-11T04:44:22.693Z,949.6
2016-07-11T04:45:22.880Z,949.57
2016-07-11T04:46:22.703Z,949.56
2016-07-11T04:47:22.696Z,949.53
2016-07-11T04:48:22.714Z,949.55
2016-07-11T04:49:22.704Z,949.55
2016-07-11T04:50:22.698Z,949.53
2016-07-11T04:51:22.696Z,949.54
2016-07-11T04:52:22.702Z,949.54
2016-07-11T04:53:22.802Z,949.56
2016-07-11T04:54:22.697Z,949.51
2016-07-11T04:55:22.703Z,949.56
2016-07-11T04:56:22.711Z,949.59
2016-07-11T04:57:22.709Z,949.62
2016-07-11T04:58:22.714Z,949.62
2016-07-11T04:59:22.718Z,949.63
2016-07-11T05:00:22.709Z,949.6
2016-07-11T05:01:22.718Z,949.62
2016-07-11T05:02:22.711Z,949.72
2016-07-11T05:03:22.716Z,949.67
2016-07-11T05:04:22.714Z,949.69
2016-07-11T05:05:22.713Z,949.71
2016-07-11T05:06:22.716Z,949.73
2016-07-11T05:07:22.718Z,949.76
2016-07-11T05:08:22.722Z,949.76
2016-07-11T05:09:22.849Z,949.78
2016-07-11T05:10:22.721Z,949.76
2016-07-11T05:11:22.719Z,949.8
2016-07-11T05:12:22.720Z,949.77
2016-07-11T05:13:22.776Z,949.8
2016-07-11T05:14:22.731Z,949.76
2016-07-11T05:15:22.736Z,949.76
2016-07-11T05:16:22.726Z,949.76
2016-07-11T05:17:22.736Z,949.77
2016-07-11T05:18:22.811Z,949.79
2016-07-11T05:19:22.730Z,949.76
2016-07-11T05:20:22.732Z,949.84
2016-07-11T05:21:22.737Z,949.83
2016-07-11T05:22:22.740Z,949.83
2016-07-11T05:23:22.735Z,949.83
2016-07-11T05:24:22.736Z,949.87
2016-07-11T05:25:22.739Z,949.85
2016-07-11T05:26:22.748Z,949.91
2016-07-11T05:27:22.932Z,949.91
2016-07-11T05:28:22.748Z,949.96
2016-07-11T05:29:22.744Z,949.95
2016-07-11T05:30:22.746Z,949.97
2016-07-11T05:31:22.744Z,949.95
2016-07-11T05:32:22.751Z,949.99
2016-07-11T05:33:22.761Z,949.96
2016-07-11T05:34:22.941Z,950.01
2016-07-11T05:35:22.758Z,950.06
2016-07-11T05:36:22.761Z,950.03
2016-07-11T05:37:22.761Z,949.98
2016-07-11T05:38:22.765Z,949.97
2016-07-11T05:39:22.758Z,950.01
2016-07-11T05:40:22.763Z,950
2016-07-11T05:41:22.756Z,949.98
2016-07-11T05:42:22.765Z,950.02
2016-07-11T05:43:22.952Z,950.03
2016-07-11T05:44:22.775Z,950.09
2016-07-11T05:45:22.774Z,950.04
2016-07-11T05:46:22.764Z,950.03
2016-07-11T05:47:22.782Z,950.01
2016-07-11T05:48:22.786Z,950.01
2016-07-11T05:49:22.779Z,950.04
2016-07-11T05:50:22.784Z,950.01
2016-07-11T05:51:22.782Z,949.95
2016-07-11T05:52:22.796Z,949.92
2016-07-11T05:53:22.794Z,949.95
2016-07-11T05:54:22.795Z,949.98
2016-07-11T05:55:22.795Z,950
2016-07-11T05:56:22.790Z,950
2016-07-11T05:57:22.795Z,949.95
2016-07-11T05:58:22.989Z,949.96
2016-07-11T05:59:22.799Z,949.98
2016-07-11T06:00:22.800Z,949.97
2016-07-11T06:01:22.798Z,950.01
2016-07-11T06:02:22.805Z,949.99
2016-07-11T06:03:22.808Z,949.99
2016-07-11T06:04:22.810Z,949.99
2016-07-11T06:05:22.812Z,949.99
2016-07-11T06:06:22.805Z,950.04
2016-07-11T06:07:22.966Z,949.93
2016-07-11T06:08:22.821Z,949.94
2016-07-11T06:09:22.824Z,949.97
2016-07-11T06:10:22.827Z,950.01
2016-07-11T06:11:22.818Z,949.94
2016-07-11T06:12:22.829Z,949.98
2016-07-11T06:13:22.874Z,949.94
2016-07-11T06:14:22.837Z,949.96
2016-07-11T06:15:22.835Z,949.94
2016-07-11T06:16:22.835Z,949.89
2016-07-11T06:17:22.835Z,949.92
2016-07-11T06:18:22.842Z,949.92
2016-07-11T06:19:22.837Z,949.92
2016-07-11T06:20:22.843Z,949.92
2016-07-11T06:21:22.843Z,949.9
2016-07-11T06:22:22.852Z,949.95
2016-07-11T06:23:23.032Z,950.01
2016-07-11T06:24:22.851Z,950.02
2016-07-11T06:25:22.857Z,950
2016-07-11T06:26:22.853Z,950.02
2016-07-11T06:27:22.857Z,950.01
2016-07-11T06:28:22.860Z,950
2016-07-11T06:29:22.864Z,950.04
2016-07-11T06:30:22.868Z,950
2016-07-11T06:31:23.061Z,950.05
2016-07-11T06:32:22.966Z,950.05
2016-07-11T06:33:22.878Z,950.03
2016-07-11T06:34:22.883Z,950.07
2016-07-11T06:35:22.884Z,950.11
2016-07-11T06:36:22.879Z,950.06
2016-07-11T06:37:22.879Z,950.11
2016-07-11T06:38:22.883Z,950.12
2016-07-11T06:39:22.886Z,950.15
2016-07-11T06:40:22.883Z,950.18
2016-07-11T06:41:22.890Z,950.16
2016-07-11T06:42:23.090Z,950.14
2016-07-11T06:43:22.897Z,950.17
2016-07-11T06:44:23.086Z,950.22
2016-07-11T06:45:22.903Z,950.24
2016-07-11T06:46:22.902Z,950.21
2016-07-11T06:47:22.909Z,950.22
2016-07-11T06:48:22.917Z,950.21
2016-07-11T06:49:22.923Z,950.23
2016-07-11T06:50:22.917Z,950.23
2016-07-11T06:51:22.923Z,950.26
2016-07-11T06:52:22.926Z,950.18
2016-07-11T06:53:22.923Z,950.17
2016-07-11T06:54:23.116Z,950.26
2016-07-11T06:55:22.951Z,950.24
2016-07-11T06:56:23.038Z,950.36
2016-07-11T06:57:22.942Z,950.32
2016-07-11T06:58:23.132Z,950.23
2016-07-11T06:59:22.948Z,950.22
2016-07-11T07:00:22.954Z,950.26
2016-07-11T07:01:22.957Z,950.25
2016-07-11T07:02:22.958Z,950.28
2016-07-11T07:03:22.967Z,950.29
2016-07-11T07:04:22.970Z,950.24
2016-07-11T07:05:23.167Z,950.22
2016-07-11T07:06:22.979Z,950.24
2016-07-11T07:07:22.988Z,950.2
2016-07-11T07:08:22.988Z,950.2
2016-07-11T07:09:22.996Z,950.26
2016-07-11T07:10:23.003Z,950.28
2016-07-11T07:11:23.005Z,950.22
2016-07-11T07:12:23.197Z,950.23
2016-07-11T07:13:23.083Z,950.24
2016-07-11T07:14:23.028Z,950.28
2016-07-11T07:15:23.029Z,950.3
2016-07-11T07:16:23.228Z,950.23
2016-07-11T07:17:23.043Z,950.2
2016-07-11T07:18:23.048Z,950.27
2016-07-11T07:19:23.065Z,950.33
2016-07-11T07:20:23.063Z,950.27
2016-07-11T07:21:23.076Z,950.29
2016-07-11T07:22:23.083Z,950.32
2016-07-11T07:23:23.084Z,950.26
2016-07-11T07:24:23.090Z,950.25
2016-07-11T07:25:23.200Z,950.3
2016-07-11T07:26:23.104Z,950.3
2016-07-11T07:27:23.307Z,950.28
2016-07-11T07:28:23.122Z,950.31
2016-07-11T07:29:23.128Z,950.32
2016-07-11T07:30:23.133Z,950.32
2016-07-11T07:31:23.151Z,950.32
2016-07-11T07:32:23.331Z,950.33
2016-07-11T07:33:23.164Z,950.38
2016-07-11T07:34:23.158Z,950.36
2016-07-11T07:35:23.172Z,950.44
2016-07-11T07:36:23.177Z,950.43
2016-07-11T07:37:23.186Z,950.43
2016-07-11T07:38:23.389Z,950.45
2016-07-11T07:39:23.201Z,950.48
2016-07-11T07:40:23.207Z,950.5
2016-07-11T07:41:23.210Z,950.52
2016-07-11T07:42:23.218Z,950.56
2016-07-11T07:43:23.226Z,950.5
2016-07-11T07:44:23.235Z,950.47
2016-07-11T07:45:23.242Z,950.47
2016-07-11T07:46:23.248Z,950.49
2016-07-11T07:47:23.253Z,950.46
2016-07-11T07:48:23.261Z,950.43
2016-07-11T07:49:23.267Z,950.47
2016-07-11T07:50:23.278Z,950.45
2016-07-11T07:51:23.461Z,950.49
2016-07-11T07:52:23.472Z,950.46
2016-07-11T07:53:23.478Z,950.51
2016-07-11T07:54:23.492Z,950.49
2016-07-11T07:55:23.490Z,950.51
2016-07-11T07:56:23.314Z,950.49
2016-07-11T07:57:23.322Z,950.46
2016-07-11T07:58:23.326Z,950.51
2016-07-11T07:59:23.331Z,950.55
2016-07-11T08:00:23.338Z,950.41
2016-07-11T08:01:23.532Z,950.51
2016-07-11T08:02:23.354Z,950.54
2016-07-11T08:03:23.405Z,950.52
2016-07-11T08:04:23.410Z,950.5
2016-07-11T08:05:23.414Z,950.55
2016-07-11T08:06:23.426Z,950.56
2016-07-11T08:07:23.438Z,950.54
2016-07-11T08:08:23.442Z,950.48
2016-07-11T08:09:23.452Z,950.56
2016-07-11T08:10:23.445Z,950.55
2016-07-11T08:11:23.460Z,950.52
2016-07-11T08:12:23.655Z,950.53
2016-07-11T08:13:23.626Z,950.54
2016-07-11T08:14:23.477Z,950.54
2016-07-11T08:15:23.485Z,950.48
2016-07-11T08:16:23.499Z,950.54
2016-07-11T08:17:23.508Z,950.53
2016-07-11T08:18:23.509Z,950.5
2016-07-11T08:19:23.519Z,950.47
2016-07-11T08:20:23.697Z,950.5
2016-07-11T08:21:23.533Z,950.54
2016-07-11T08:22:23.539Z,950.61
2016-07-11T08:23:23.741Z,950.65
2016-07-11T08:24:23.553Z,950.58
2016-07-11T08:25:23.560Z,950.64
2016-07-11T08:26:23.567Z,950.65
2016-07-11T08:27:23.574Z,950.65
2016-07-11T08:28:23.580Z,950.6
2016-07-11T08:29:23.589Z,950.65
2016-07-11T08:30:23.598Z,950.71
2016-07-11T08:31:23.609Z,950.66
2016-07-11T08:32:23.606Z,950.64
2016-07-11T08:33:23.622Z,950.66
2016-07-11T08:34:23.621Z,950.65
2016-07-11T08:35:23.631Z,950.65
2016-07-11T08:36:23.642Z,950.68
2016-07-11T08:37:23.651Z,950.67
2016-07-11T08:38:23.652Z,950.65
2016-07-11T08:39:23.660Z,950.74
2016-07-11T08:40:23.670Z,950.73
2016-07-11T08:41:23.673Z,950.76
2016-07-11T08:42:23.684Z,950.74
2016-07-11T08:43:23.716Z,950.75
2016-07-11T08:44:23.712Z,950.65
2016-07-11T08:45:23.707Z,950.72
2016-07-11T08:46:23.722Z,950.68
2016-07-11T08:47:23.722Z,950.62
2016-07-11T08:48:23.747Z,950.65
2016-07-11T08:49:23.929Z,950.59
2016-07-11T08:50:23.743Z,950.6
2016-07-11T08:51:23.750Z,950.66
2016-07-11T08:52:23.759Z,950.64
2016-07-11T08:53:23.767Z,950.69
2016-07-11T08:54:23.771Z,950.67
2016-07-11T08:55:23.776Z,950.66
2016-07-11T08:56:23.782Z,950.72
2016-07-11T08:57:23.786Z,950.7
2016-07-11T08:58:23.815Z,950.73
2016-07-11T08:59:24.007Z,950.69
2016-07-11T09:00:24.020Z,950.7
2016-07-11T09:01:23.814Z,950.7
2016-07-11T09:02:23.821Z,950.76
2016-07-11T09:03:23.819Z,950.75
2016-07-11T09:04:23.825Z,950.75
2016-07-11T09:05:23.828Z,950.78
2016-07-11T09:06:23.836Z,950.73
2016-07-11T09:07:23.951Z,950.74
2016-07-11T09:08:23.847Z,950.72
2016-07-11T09:09:23.855Z,950.7
2016-07-11T09:10:24.045Z,950.73
2016-07-11T09:11:23.863Z,950.69
2016-07-11T09:12:24.056Z,950.67
2016-07-11T09:13:23.934Z,950.62
2016-07-11T09:14:23.893Z,950.7
2016-07-11T09:15:24.082Z,950.68
2016-07-11T09:16:23.897Z,950.68
2016-07-11T09:17:24.098Z,950.7
2016-07-11T09:18:24.100Z,950.65
2016-07-11T09:19:24.097Z,950.66
2016-07-11T09:20:23.927Z,950.75
2016-07-11T09:21:23.931Z,950.75
2016-07-11T09:22:24.044Z,950.79
2016-07-11T09:23:23.941Z,950.7
2016-07-11T09:24:24.151Z,950.76
2016-07-11T09:25:23.952Z,950.77
2016-07-11T09:26:23.957Z,950.75
2016-07-11T09:27:24.065Z,950.76
2016-07-11T09:28:23.972Z,950.79
2016-07-11T09:29:23.979Z,950.78
2016-07-11T09:30:23.980Z,950.78
2016-07-11T09:31:24.182Z,950.68
2016-07-11T09:32:24.067Z,950.7
2016-07-11T09:33:24.006Z,950.79
2016-07-11T09:34:24.000Z,950.72
2016-07-11T09:35:24.013Z,950.74
2016-07-11T09:36:24.217Z,950.68
2016-07-11T09:37:24.032Z,950.77
2016-07-11T09:38:24.034Z,950.77
2016-07-11T09:39:24.036Z,950.69
2016-07-11T09:40:24.041Z,950.61
2016-07-11T09:41:24.060Z,950.72
2016-07-11T09:42:24.058Z,950.69
2016-07-11T09:43:24.060Z,950.69
2016-07-11T09:44:24.247Z,950.84
2016-07-11T09:45:24.057Z,950.79
2016-07-11T09:46:24.058Z,950.85
2016-07-11T09:47:24.076Z,950.74
2016-07-11T09:48:24.071Z,950.7
2016-07-11T09:49:24.144Z,950.73
2016-07-11T09:50:24.088Z,950.69
2016-07-11T09:51:24.088Z,950.79
2016-07-11T09:52:24.148Z,950.84
2016-07-11T09:53:24.172Z,950.73
2016-07-11T09:54:24.234Z,950.72
2016-07-11T09:55:24.161Z,950.74
2016-07-11T09:56:24.118Z,950.73
2016-07-11T09:57:24.129Z,950.75
2016-07-11T09:58:24.137Z,950.8
2016-07-11T09:59:24.136Z,950.72
2016-07-11T10:00:24.146Z,950.77
2016-07-11T10:01:24.147Z,950.81
2016-07-11T10:02:24.153Z,950.74
2016-07-11T10:03:24.162Z,950.74
2016-07-11T10:04:24.355Z,950.74
2016-07-11T10:05:24.242Z,950.71
2016-07-11T10:06:24.189Z,950.76
2016-07-11T10:07:24.202Z,950.78
2016-07-11T10:08:24.212Z,950.88
2016-07-11T10:09:24.217Z,950.8
2016-07-11T10:10:24.220Z,950.78
2016-07-11T10:11:24.230Z,950.84
2016-07-11T10:12:24.236Z,950.77
2016-07-11T10:13:24.368Z,950.74
2016-07-11T10:14:24.421Z,950.71
2016-07-11T10:15:24.255Z,950.71
2016-07-11T10:16:24.246Z,950.7
2016-07-11T10:17:24.250Z,950.67
2016-07-11T10:18:24.253Z,950.68
2016-07-11T10:19:24.263Z,950.66
2016-07-11T10:20:24.269Z,950.7
2016-07-11T10:21:24.279Z,950.6
2016-07-11T10:22:24.298Z,950.61
2016-07-11T10:23:24.304Z,950.61
2016-07-11T10:24:24.302Z,950.63
2016-07-11T10:25:24.309Z,950.63
2016-07-11T10:26:24.315Z,950.64
2016-07-11T10:27:24.508Z,950.69
2016-07-11T10:28:24.314Z,950.67
2016-07-11T10:29:24.336Z,950.61
2016-07-11T10:30:24.331Z,950.61
2016-07-11T10:31:24.348Z,950.62
2016-07-11T10:32:24.352Z,950.58
2016-07-11T10:33:24.340Z,950.58
2016-07-11T10:34:24.359Z,950.62
2016-07-11T10:35:24.372Z,950.66
2016-07-11T10:36:24.381Z,950.63
2016-07-11T10:37:24.367Z,950.67
2016-07-11T10:38:24.381Z,950.65
2016-07-11T10:39:24.382Z,950.63
2016-07-11T10:40:24.386Z,950.61
2016-07-11T10:41:24.386Z,950.66
2016-07-11T10:42:24.396Z,950.64
2016-07-11T10:43:24.400Z,950.61
2016-07-11T10:44:24.410Z,950.75
2016-07-11T10:45:24.419Z,950.7
2016-07-11T10:46:24.420Z,950.68
2016-07-11T10:47:24.427Z,950.76
2016-07-11T10:48:24.442Z,950.6
2016-07-11T10:49:24.449Z,950.62
2016-07-11T10:50:24.454Z,950.57
2016-07-11T10:51:24.471Z,950.61
2016-07-11T10:52:24.480Z,950.55
2016-07-11T10:53:24.468Z,950.66
2016-07-11T10:54:24.469Z,950.72
2016-07-11T10:55:24.482Z,950.79
2016-07-11T10:56:24.487Z,950.78
2016-07-11T10:57:24.507Z,950.81
2016-07-11T10:58:24.503Z,950.79
2016-07-11T10:59:24.516Z,950.83
2016-07-11T11:00:24.508Z,950.74
2016-07-11T11:01:24.515Z,950.77
2016-07-11T11:02:24.520Z,950.75
2016-07-11T11:03:24.528Z,950.75
2016-07-11T11:04:24.537Z,950.78
2016-07-11T11:05:24.546Z,950.85
2016-07-11T11:06:24.547Z,950.8
2016-07-11T11:07:24.693Z,950.76
2016-07-11T11:08:24.563Z,950.79
2016-07-11T11:09:24.571Z,950.79
2016-07-11T11:10:24.576Z,950.84
2016-07-11T11:11:24.582Z,950.8
2016-07-11T11:12:24.792Z,950.67
2016-07-11T11:13:24.640Z,950.67
2016-07-11T11:14:24.601Z,950.64
2016-07-11T11:15:24.606Z,950.68
2016-07-11T11:16:24.612Z,950.69
2016-07-11T11:17:24.633Z,950.7
2016-07-11T11:18:24.646Z,950.73
2016-07-11T11:19:24.642Z,950.64
2016-07-11T11:20:24.638Z,950.69
2016-07-11T11:21:24.641Z,950.56
2016-07-11T11:22:24.649Z,950.62
2016-07-11T11:23:24.852Z,950.56
2016-07-11T11:24:24.729Z,950.54
2016-07-11T11:25:24.667Z,950.56
2016-07-11T11:26:24.679Z,950.57
2016-07-11T11:27:24.677Z,950.55
2016-07-11T11:28:24.695Z,950.58
2016-07-11T11:29:24.708Z,950.6
2016-07-11T11:30:24.703Z,950.53
2016-07-11T11:31:24.703Z,950.51
2016-07-11T11:32:24.712Z,950.5
2016-07-11T11:33:24.796Z,950.52
2016-07-11T11:34:24.921Z,950.51
2016-07-11T11:35:24.740Z,950.52
2016-07-11T11:36:24.763Z,950.5
2016-07-11T11:37:25.026Z,950.53
2016-07-11T11:38:25.018Z,950.53
2016-07-11T11:39:24.770Z,950.54
2016-07-11T11:40:24.766Z,950.55
2016-07-11T11:41:24.766Z,950.5
2016-07-11T11:42:24.773Z,950.55
2016-07-11T11:43:24.780Z,950.55
2016-07-11T11:44:24.782Z,950.54
2016-07-11T11:45:24.794Z,950.6
2016-07-11T11:46:24.798Z,950.59
2016-07-11T11:47:25.029Z,950.51
2016-07-11T11:48:24.811Z,950.52
2016-07-11T11:49:24.818Z,950.62
2016-07-11T11:50:24.828Z,950.59
2016-07-11T11:51:24.835Z,950.51
2016-07-11T11:52:24.849Z,950.59
2016-07-11T11:53:24.842Z,950.56
2016-07-11T11:54:24.856Z,950.56
2016-07-11T11:55:24.870Z,950.57
2016-07-11T11:56:24.874Z,950.62
2016-07-11T11:57:24.880Z,950.55
2016-07-11T11:58:24.872Z,950.56
2016-07-11T11:59:24.877Z,950.54
2016-07-11T12:00:24.890Z,950.53
2016-07-11T12:01:24.897Z,950.58
2016-07-11T12:02:24.918Z,950.56
2016-07-11T12:03:25.111Z,950.62
2016-07-11T12:04:25.061Z,950.63
2016-07-11T12:05:24.914Z,950.53
2016-07-11T12:06:24.920Z,950.59
2016-07-11T12:07:24.929Z,950.56
2016-07-11T12:08:24.934Z,950.6
2016-07-11T12:09:24.950Z,950.6
2016-07-11T12:10:24.951Z,950.61
2016-07-11T12:11:25.063Z,950.51
2016-07-11T12:12:24.960Z,950.5
2016-07-11T12:13:25.025Z,950.5
2016-07-11T12:14:24.978Z,950.54
2016-07-11T12:15:24.995Z,950.47
2016-07-11T12:16:24.994Z,950.44
2016-07-11T12:17:24.997Z,950.45
2016-07-11T12:18:25.015Z,950.52
2016-07-11T12:19:25.020Z,950.48
2016-07-11T12:20:25.024Z,950.51
2016-07-11T12:21:25.040Z,950.5
2016-07-11T12:22:25.050Z,950.55
2016-07-11T12:23:25.061Z,950.51
2016-07-11T12:24:25.065Z,950.41
2016-07-11T12:25:25.074Z,950.42
2016-07-11T12:26:25.073Z,950.38
2016-07-11T12:27:25.066Z,950.43
2016-07-11T12:28:25.074Z,950.46
2016-07-11T12:29:25.084Z,950.44
2016-07-11T12:30:25.089Z,950.39
2016-07-11T12:31:25.102Z,950.42